Time;durP1;ratioP1;P1;durP2;ratioP2;P2;SDS_P1;SDS_P2;PMS_P1;PMS_P2;Temp;Humidity;BMP_temperature;BMP_pressure;BME280_temperature;BME280_humidity;BME280_pressure;Samples;Min_cycle;Max_cycle;Signal;HPM_P1;HPM_P2
2021/10/24 00:00:16;;;;;;;21.48;10.05;;;;;;;4.55;64.95;101788.09;5015434;28;20352;-56
2021/10/24 00:02:41;;;;;;;21.90;10.30;;;;;;;4.52;64.12;101788.75;5015720;28;20018;-57
2021/10/24 00:05:08;;;;;;;21.25;10.48;;;;;;;4.46;64.60;101794.81;5015512;28;20022;-55
2021/10/24 00:07:33;;;;;;;21.00;10.45;;;;;;;4.42;64.84;101803.00;5015391;28;20109;-55
2021/10/24 00:09:59;;;;;;;27.17;9.45;;;;;;;4.38;64.95;101792.84;5015540;28;20105;-52
2021/10/24 00:12:25;;;;;;;13.27;7.90;;;;;;;4.38;65.17;101799.22;5015286;28;20381;-57
2021/10/24 00:14:51;;;;;;;13.13;5.90;;;;;;;4.43;65.00;101790.72;5014886;28;20105;-51
2021/10/24 00:17:16;;;;;;;12.50;5.68;;;;;;;4.48;65.08;101785.00;5023214;28;20076;-44
2021/10/24 00:19:42;;;;;;;13.18;6.07;;;;;;;4.53;65.41;101793.16;5015632;28;20033;-54
2021/10/24 00:22:08;;;;;;;15.30;5.88;;;;;;;4.54;64.76;101792.03;5015315;28;20021;-54
2021/10/24 00:24:33;;;;;;;14.82;6.05;;;;;;;4.45;65.30;101794.00;5015446;28;20030;-54
2021/10/24 00:26:59;;;;;;;11.18;6.00;;;;;;;4.30;65.41;101802.81;5015601;28;20054;-50
2021/10/24 00:29:24;;;;;;;13.25;5.28;;;;;;;4.17;66.24;101798.22;5014986;28;20022;-56
2021/10/24 00:31:50;;;;;;;14.18;6.38;;;;;;;4.14;65.49;101799.72;5015449;28;20401;-56
2021/10/24 00:34:16;;;;;;;15.23;6.25;;;;;;;4.17;65.89;101796.28;5015170;28;20338;-56
2021/10/24 00:36:41;;;;;;;13.60;5.93;;;;;;;4.21;66.03;101788.91;5015394;28;20034;-56
2021/10/24 00:39:07;;;;;;;12.57;6.18;;;;;;;4.27;66.04;101792.34;5015193;28;20101;-56
2021/10/24 00:41:32;;;;;;;17.20;5.97;;;;;;;4.26;65.81;101799.06;5015147;28;20306;-52
2021/10/24 00:43:59;;;;;;;15.32;5.78;;;;;;;4.18;66.20;101802.66;5014990;28;20061;-56
2021/10/24 00:46:25;;;;;;;13.40;6.43;;;;;;;4.08;65.94;101794.59;5015057;28;20112;-57
2021/10/24 00:48:50;;;;;;;12.77;5.93;;;;;;;4.03;66.70;101799.19;5015552;28;20113;-53
2021/10/24 00:51:16;;;;;;;16.05;6.72;;;;;;;4.02;66.71;101800.31;5014888;28;20409;-55
2021/10/24 00:53:42;;;;;;;17.88;6.00;;;;;;;4.02;66.55;101803.09;5015345;28;20026;-52
2021/10/24 00:56:08;;;;;;;12.52;5.60;;;;;;;4.07;66.11;101795.75;5014863;28;20054;-57
2021/10/24 00:58:34;;;;;;;16.33;6.60;;;;;;;4.10;66.14;101797.88;5014955;28;20049;-50
2021/10/24 01:01:01;;;;;;;14.20;5.65;;;;;;;4.12;66.04;101803.97;5014820;28;20406;-54
2021/10/24 01:03:27;;;;;;;18.08;7.57;;;;;;;4.13;65.60;101795.28;5015055;28;20057;-56
2021/10/24 01:05:53;;;;;;;21.77;8.55;;;;;;;4.14;65.66;101796.94;5017434;28;20521;-58
2021/10/24 01:08:19;;;;;;;20.60;8.00;;;;;;;4.16;65.91;101802.97;5016908;28;20318;-55
2021/10/24 01:10:44;;;;;;;14.27;6.55;;;;;;;4.19;66.06;101795.94;5011516;28;20030;-46
2021/10/24 01:13:10;;;;;;;12.68;5.65;;;;;;;4.22;65.86;101798.06;5017936;28;20396;-53
2021/10/24 01:15:35;;;;;;;13.05;5.93;;;;;;;4.22;66.02;101800.84;5020503;28;20029;-53
2021/10/24 01:18:00;;;;;;;13.25;6.13;;;;;;;4.15;65.34;101803.31;5025553;28;20030;-55
2021/10/24 01:20:27;;;;;;;20.25;6.72;;;;;;;4.08;66.24;101797.38;5018434;28;20030;-49
2021/10/24 01:22:53;;;;;;;12.70;5.88;;;;;;;4.03;66.00;101798.34;5018167;28;20397;-57
2021/10/24 01:25:20;;;;;;;12.75;5.45;;;;;;;4.00;66.27;101791.47;5017998;28;20033;-55
2021/10/24 01:27:46;;;;;;;10.93;5.38;;;;;;;3.99;66.65;101800.16;5017591;28;20037;-53
2021/10/24 01:30:12;;;;;;;11.35;5.60;;;;;;;3.99;66.58;101794.59;5018316;28;20028;-44
2021/10/24 01:32:39;;;;;;;10.85;5.25;;;;;;;3.99;66.43;101802.94;5017894;28;20021;-54
2021/10/24 01:35:06;;;;;;;13.43;5.13;;;;;;;3.95;66.65;101801.94;5017852;28;20022;-56
2021/10/24 01:37:34;;;;;;;15.93;5.97;;;;;;;3.94;66.67;101801.13;5018021;28;20353;-53
2021/10/24 01:40:03;;;;;;;11.20;5.60;;;;;;;3.89;66.07;101804.06;5017377;28;20053;-46
2021/10/24 01:42:28;;;;;;;16.13;6.07;;;;;;;3.84;66.69;101800.63;5017665;28;20021;-56
2021/10/24 01:44:54;;;;;;;14.82;7.05;;;;;;;3.79;66.21;101804.34;5017640;28;20457;-54
2021/10/24 01:47:20;;;;;;;15.35;7.65;;;;;;;3.75;66.52;101796.97;5017777;28;20026;-54
2021/10/24 01:49:45;;;;;;;16.33;6.47;;;;;;;3.69;66.68;101807.44;5017780;28;20032;-56
2021/10/24 01:52:10;;;;;;;25.50;8.55;;;;;;;3.61;67.03;101814.63;5017313;28;20409;-50
2021/10/24 01:54:36;;;;;;;19.48;8.05;;;;;;;3.52;67.30;101810.97;5017688;28;20310;-54
2021/10/24 01:57:01;;;;;;;23.23;9.05;;;;;;;3.46;67.22;101816.97;5017415;28;20099;-54
2021/10/24 01:59:27;;;;;;;26.05;8.68;;;;;;;3.37;67.64;101823.34;5017525;28;20107;-52
2021/10/24 02:01:52;;;;;;;21.00;8.90;;;;;;;3.30;68.04;101825.75;5017264;28;20076;-53
2021/10/24 02:04:17;;;;;;;23.88;9.95;;;;;;;3.27;67.44;101826.38;5017244;28;20026;-50
2021/10/24 02:06:43;;;;;;;30.35;10.82;;;;;;;3.26;67.88;101829.47;5017702;28;20026;-50
2021/10/24 02:09:08;;;;;;;23.50;9.55;;;;;;;3.25;67.76;101823.09;5017193;28;20024;-54
2021/10/24 02:11:33;;;;;;;21.80;9.52;;;;;;;3.25;67.29;101831.41;5016922;28;20025;-56
2021/10/24 02:13:59;;;;;;;27.65;10.93;;;;;;;3.17;67.12;101834.97;5017069;28;20025;-56
2021/10/24 02:16:24;;;;;;;26.85;10.15;;;;;;;3.08;68.03;101826.59;5026014;28;20088;-52
2021/10/24 02:18:50;;;;;;;20.73;9.48;;;;;;;3.06;68.55;101825.28;5021894;28;20402;-49
2021/10/24 02:21:15;;;;;;;25.67;8.57;;;;;;;3.08;68.91;101829.38;5017131;28;20301;-51
2021/10/24 02:23:41;;;;;;;19.85;8.00;;;;;;;3.11;68.62;101825.13;5017224;28;20458;-51
2021/10/24 02:26:06;;;;;;;16.45;7.43;;;;;;;3.11;68.15;101833.47;5002865;28;20024;-57
2021/10/24 02:28:32;;;;;;;19.55;7.28;;;;;;;3.02;68.64;101836.22;5016854;28;20414;-57
2021/10/24 02:30:57;;;;;;;16.08;7.70;;;;;;;2.94;69.42;101830.56;5016766;28;20037;-56
2021/10/24 02:33:22;;;;;;;14.77;6.40;;;;;;;2.94;69.20;101828.63;5016818;28;20049;-54
2021/10/24 02:35:48;;;;;;;15.18;6.97;;;;;;;2.98;68.95;101820.47;5016872;28;20467;-55
2021/10/24 02:38:13;;;;;;;13.30;6.57;;;;;;;3.01;68.64;101829.00;5016564;28;20014;-54
2021/10/24 02:40:42;;;;;;;15.02;6.05;;;;;;;3.00;68.53;101832.06;5016513;28;20073;-54
2021/10/24 02:43:08;;;;;;;14.65;6.55;;;;;;;2.93;68.67;101834.50;5016328;28;20026;-57
2021/10/24 02:45:36;;;;;;;14.52;6.40;;;;;;;2.85;68.83;101829.69;5016745;28;20022;-54
2021/10/24 02:48:01;;;;;;;12.82;6.40;;;;;;;2.81;69.24;101845.34;5016534;28;20413;-56
2021/10/24 02:50:27;;;;;;;11.63;6.35;;;;;;;2.78;68.92;101838.47;5016365;28;20046;-55
2021/10/24 02:52:52;;;;;;;16.30;7.10;;;;;;;2.68;69.07;101836.75;5016416;28;20026;-52
2021/10/24 02:55:18;;;;;;;16.35;7.68;;;;;;;2.64;69.32;101835.75;5009989;28;20026;-55
2021/10/24 02:57:43;;;;;;;12.02;6.60;;;;;;;2.66;69.64;101839.03;5009070;28;20036;-57
2021/10/24 03:00:10;;;;;;;13.57;7.15;;;;;;;2.69;69.58;101835.63;5016054;28;20044;-56
2021/10/24 03:02:36;;;;;;;16.13;6.75;;;;;;;2.71;69.03;101835.31;5016711;28;20092;-50
2021/10/24 03:05:03;;;;;;;17.23;7.88;;;;;;;2.69;68.68;101845.91;5016326;28;20030;-57
2021/10/24 03:07:28;;;;;;;13.80;7.25;;;;;;;2.62;68.89;101848.28;5016058;28;20030;-54
2021/10/24 03:09:54;;;;;;;12.38;7.20;;;;;;;2.55;69.10;101845.16;5016192;28;20025;-55
2021/10/24 03:12:19;;;;;;;12.95;7.25;;;;;;;2.48;69.34;101843.63;5016084;28;20049;-56
2021/10/24 03:14:44;;;;;;;17.65;7.50;;;;;;;2.46;69.38;101850.59;5016027;28;20479;-56
2021/10/24 03:17:10;;;;;;;17.08;7.80;;;;;;;2.45;69.67;101848.97;5026469;28;20066;-54
2021/10/24 03:19:35;;;;;;;13.57;7.07;;;;;;;2.43;69.21;101854.00;5016242;28;20049;-55
2021/10/24 03:22:03;;;;;;;13.48;7.10;;;;;;;2.38;69.29;101865.22;5015997;28;20025;-55
2021/10/24 03:24:28;;;;;;;15.13;7.45;;;;;;;2.31;69.61;101864.84;5015744;28;20030;-52
2021/10/24 03:26:53;;;;;;;18.17;8.15;;;;;;;2.30;69.44;101860.41;5016100;28;20029;-52
2021/10/24 03:29:19;;;;;;;12.43;6.63;;;;;;;2.23;70.20;101868.34;5015404;28;20435;-56
2021/10/24 03:31:44;;;;;;;13.48;7.47;;;;;;;2.17;70.79;101875.94;5015714;28;20357;-54
2021/10/24 03:34:09;;;;;;;13.40;7.20;;;;;;;2.11;70.72;101883.53;4643120;28;9999943;-56
2021/10/24 03:36:35;;;;;;;15.10;6.45;;;;;;;2.09;70.40;101888.59;4996191;28;20036;-51
2021/10/24 03:39:01;;;;;;;11.60;6.43;;;;;;;2.04;70.43;101871.22;4996107;28;20034;-55
2021/10/24 03:41:26;;;;;;;11.15;6.22;;;;;;;2.05;70.59;101875.66;4995773;28;20046;-55
2021/10/24 03:43:51;;;;;;;12.73;6.68;;;;;;;2.01;70.50;101877.41;4996281;28;20035;-55
2021/10/24 03:46:17;;;;;;;13.60;7.15;;;;;;;1.93;70.56;101884.50;4995801;28;20089;-52
2021/10/24 03:48:42;;;;;;;11.00;7.28;;;;;;;1.88;71.04;101890.13;4996175;28;20031;-53
2021/10/24 03:51:07;;;;;;;17.20;8.10;;;;;;;1.82;71.62;101885.81;4995935;28;20034;-55
2021/10/24 03:53:33;;;;;;;17.40;8.85;;;;;;;1.77;72.03;101885.91;4996041;28;20030;-54
2021/10/24 03:55:58;;;;;;;17.00;8.10;;;;;;;1.78;72.29;101887.56;4995973;28;20038;-56
2021/10/24 03:58:23;;;;;;;20.48;7.88;;;;;;;1.73;71.27;101884.91;4995750;28;20101;-56
2021/10/24 04:00:49;;;;;;;17.63;9.07;;;;;;;1.68;71.50;101882.22;4996194;28;20368;-53
2021/10/24 04:03:14;;;;;;;21.85;9.90;;;;;;;1.63;71.53;101885.88;4995520;28;20109;-56
2021/10/24 04:05:46;;;;;;;20.15;9.50;;;;;;;1.64;71.51;101895.03;4995972;28;20022;-56
2021/10/24 04:08:12;;;;;;;19.73;9.80;;;;;;;1.67;71.07;101891.66;4995739;28;20030;-56
2021/10/24 04:10:37;;;;;;;14.75;8.23;;;;;;;1.72;70.95;101895.16;4995805;28;20425;-56
2021/10/24 04:13:02;;;;;;;15.20;7.72;;;;;;;1.80;70.96;101888.06;4995946;28;20128;-55
2021/10/24 04:15:28;;;;;;;14.50;7.30;;;;;;;1.85;70.37;101897.09;4996771;28;20029;-54
2021/10/24 04:17:53;;;;;;;14.45;7.70;;;;;;;1.91;70.86;101889.50;5005073;28;20030;-56
2021/10/24 04:20:21;;;;;;;15.57;7.43;;;;;;;1.93;71.07;101886.44;4995581;28;20033;-57
2021/10/24 04:22:47;;;;;;;12.98;6.72;;;;;;;1.92;70.90;101882.84;4995649;28;20014;-54
2021/10/24 04:25:14;;;;;;;16.67;7.90;;;;;;;1.90;70.62;101890.63;4995875;28;20030;-56
2021/10/24 04:27:40;;;;;;;17.45;7.25;;;;;;;1.90;70.75;101893.41;4995622;28;20038;-52
2021/10/24 04:30:08;;;;;;;11.75;7.00;;;;;;;1.90;70.71;101896.19;4995864;28;20030;-51
2021/10/24 04:32:34;;;;;;;17.35;7.20;;;;;;;1.90;70.32;101895.34;4995237;28;20023;-54
2021/10/24 04:35:00;;;;;;;16.17;6.07;;;;;;;1.89;69.72;101889.00;4995628;28;20023;-55
2021/10/24 04:37:25;;;;;;;10.25;6.82;;;;;;;1.89;69.73;101900.09;4995892;28;20029;-55
2021/10/24 04:39:51;;;;;;;15.30;6.53;;;;;;;1.87;70.19;101916.22;4996367;28;20110;-55
2021/10/24 04:42:16;;;;;;;12.98;5.82;;;;;;;1.76;70.27;101914.78;4999197;28;20072;-53
2021/10/24 04:44:43;;;;;;;14.32;6.60;;;;;;;1.65;70.52;101916.94;4999244;28;20102;-53
2021/10/24 04:47:09;;;;;;;14.85;6.10;;;;;;;1.63;71.15;101921.09;4999413;28;20022;-54
2021/10/24 04:49:34;;;;;;;13.43;5.50;;;;;;;1.60;70.60;101919.75;4998858;28;20026;-56
2021/10/24 04:51:59;;;;;;;13.18;6.32;;;;;;;1.54;70.38;101913.50;4999224;28;20076;-51
2021/10/24 04:54:25;;;;;;;12.25;6.70;;;;;;;1.48;70.39;101920.25;4999076;28;20101;-56
2021/10/24 04:56:52;;;;;;;13.60;7.05;;;;;;;1.41;71.18;101925.38;4998881;28;20034;-55
2021/10/24 04:59:19;;;;;;;12.68;6.70;;;;;;;1.33;71.65;101922.47;4999004;28;20113;-53
2021/10/24 05:01:45;;;;;;;12.90;6.43;;;;;;;1.31;71.82;101920.00;4999276;28;20105;-56
2021/10/24 05:04:11;;;;;;;14.30;6.68;;;;;;;1.32;72.05;101924.41;4998611;28;20026;-53
2021/10/24 05:06:37;;;;;;;16.13;8.15;;;;;;;1.35;71.97;101923.81;4998768;28;20035;-56
2021/10/24 05:09:03;;;;;;;15.48;7.32;;;;;;;1.37;71.48;101929.91;4999289;28;20058;-54
2021/10/24 05:11:29;;;;;;;15.32;7.70;;;;;;;1.30;71.46;101932.22;4998640;28;20069;-53
2021/10/24 05:13:54;;;;;;;16.98;8.02;;;;;;;1.22;71.93;101938.44;4998864;28;20498;-53
2021/10/24 05:16:19;;;;;;;18.27;7.75;;;;;;;1.19;72.17;101944.59;5006923;28;20405;-56
2021/10/24 05:18:45;;;;;;;20.15;9.32;;;;;;;1.19;72.39;101939.88;5000913;28;20022;-54
2021/10/24 05:21:10;;;;;;;16.17;8.07;;;;;;;1.13;72.08;101934.72;4998289;28;20030;-54
2021/10/24 05:23:36;;;;;;;21.10;9.27;;;;;;;1.12;72.32;101945.00;4998665;28;20445;-52
2021/10/24 05:26:04;;;;;;;20.50;8.90;;;;;;;1.09;72.08;101940.03;4998395;28;20029;-56
2021/10/24 05:28:30;;;;;;;19.63;9.98;;;;;;;1.08;71.97;101951.41;4998650;28;20030;-50
2021/10/24 05:30:55;;;;;;;20.83;10.13;;;;;;;1.03;72.44;101945.94;4997991;28;20410;-56
2021/10/24 05:33:21;;;;;;;24.48;12.10;;;;;;;1.06;72.90;101945.34;4998264;28;20051;-53
2021/10/24 05:35:46;;;;;;;24.02;12.25;;;;;;;1.11;72.82;101946.13;4998508;28;20153;-51
2021/10/24 05:38:11;;;;;;;25.88;11.80;;;;;;;1.11;72.27;101957.19;4998112;28;20022;-53
2021/10/24 05:40:37;;;;;;;29.35;12.98;;;;;;;1.07;72.50;101956.13;4997784;28;20483;-54
2021/10/24 05:43:03;;;;;;;30.27;13.82;;;;;;;1.07;73.03;101952.53;4998358;28;20022;-55
2021/10/24 05:45:29;;;;;;;34.88;14.20;;;;;;;1.11;73.38;101959.13;4997984;28;20655;-55
2021/10/24 05:47:54;;;;;;;29.60;14.07;;;;;;;1.18;73.07;101949.31;4997800;28;20029;-57
2021/10/24 05:50:19;;;;;;;31.30;14.18;;;;;;;1.22;73.26;101960.63;4997667;28;20042;-56
2021/10/24 05:52:45;;;;;;;30.42;13.95;;;;;;;1.28;73.74;101967.72;4997834;28;20321;-55
2021/10/24 05:55:10;;;;;;;29.33;14.55;;;;;;;1.35;73.86;101973.69;4998244;28;20345;-53
2021/10/24 05:57:36;;;;;;;29.80;13.80;;;;;;;1.43;74.07;101972.19;4997823;28;20030;-53
2021/10/24 06:00:01;;;;;;;32.38;15.52;;;;;;;1.53;73.99;101978.38;4997215;28;20026;-53
2021/10/24 06:02:26;;;;;;;35.55;16.33;;;;;;;1.68;73.95;101979.25;4997514;28;20357;-55
2021/10/24 06:04:52;;;;;;;38.78;17.73;;;;;;;1.89;73.91;101979.69;4997691;28;20291;-56
2021/10/24 06:07:17;;;;;;;43.70;18.90;;;;;;;2.08;73.36;101977.66;4997574;28;20464;-56
2021/10/24 06:12:28;;;;;;;68.25;25.83;;;;;;;2.52;72.62;101993.72;4988240;28;20026;-55
2021/10/24 06:14:54;;;;;;;60.55;27.80;;;;;;;2.74;71.85;101985.47;4993829;28;20033;-50
2021/10/24 06:17:19;;;;;;;82.00;37.92;;;;;;;3.01;71.44;101986.50;5003096;28;20022;-53
2021/10/24 06:19:45;;;;;;;112.57;57.53;;;;;;;3.29;71.25;101993.66;4995974;28;20026;-54
2021/10/24 06:22:10;;;;;;;85.13;40.90;;;;;;;3.51;70.54;101992.81;4994867;28;20074;-51
2021/10/24 06:24:35;;;;;;;87.03;42.80;;;;;;;3.75;71.00;101991.66;4995330;28;20037;-55
2021/10/24 06:27:01;;;;;;;88.97;42.63;;;;;;;4.02;70.49;101999.84;5008222;28;20026;-52
2021/10/24 06:29:26;;;;;;;77.55;38.10;;;;;;;4.26;70.00;102000.28;4996528;28;20030;-56
2021/10/24 06:31:51;;;;;;;63.35;32.97;;;;;;;4.55;69.65;102007.28;4993906;28;20030;-50
2021/10/24 06:34:17;;;;;;;62.40;28.85;;;;;;;4.84;69.30;102017.84;4998090;28;20022;-67
2021/10/24 06:36:42;;;;;;;49.35;26.35;;;;;;;5.00;68.04;102021.00;4997112;28;20022;-55
2021/10/24 06:39:07;;;;;;;62.40;29.60;;;;;;;5.00;67.42;102021.81;4996813;28;20022;-55
2021/10/24 06:41:34;;;;;;;71.15;34.03;;;;;;;5.12;68.21;102024.78;4997589;28;20046;-56
2021/10/24 06:44:00;;;;;;;73.88;35.05;;;;;;;5.38;68.40;102027.59;4997156;28;20030;-54
2021/10/24 06:46:25;;;;;;;58.53;29.00;;;;;;;5.72;67.47;102031.50;4995110;28;20022;-50
2021/10/24 06:48:50;;;;;;;63.63;35.85;;;;;;;6.06;67.02;102033.47;4996886;28;20030;-55
2021/10/24 06:51:16;;;;;;;77.10;42.28;;;;;;;6.38;66.16;102040.41;4992259;28;20023;-54
2021/10/24 06:53:41;;;;;;;64.97;35.00;;;;;;;6.70;65.18;102034.19;4994008;28;20033;-57
2021/10/24 06:56:06;;;;;;;44.35;21.75;;;;;;;6.96;63.79;102044.41;4988469;28;20080;-55
2021/10/24 06:58:32;;;;;;;45.30;20.83;;;;;;;7.21;62.83;102039.81;4993391;28;20110;-56
2021/10/24 07:00:57;;;;;;;35.20;16.77;;;;;;;7.52;62.55;102045.00;4993130;28;20022;-57
2021/10/24 07:03:22;;;;;;;30.33;14.70;;;;;;;7.87;62.05;102053.91;4994488;28;20406;-55
2021/10/24 07:05:48;;;;;;;32.85;16.48;;;;;;;8.15;61.78;102054.09;4991054;28;20480;-50
2021/10/24 07:08:13;;;;;;;36.60;21.08;;;;;;;8.41;60.39;102045.44;4996263;28;20057;-52
2021/10/24 07:10:38;;;;;;;48.60;26.05;;;;;;;8.64;60.07;102055.88;4996445;28;20031;-56
2021/10/24 07:13:04;;;;;;;41.78;20.70;;;;;;;8.91;59.96;102054.34;5003920;28;20045;-51
2021/10/24 07:15:30;;;;;;;42.70;19.65;;;;;;;9.17;59.19;102056.78;4997057;28;20319;-51
2021/10/24 07:17:55;;;;;;;44.17;17.38;;;;;;;9.44;58.89;102051.59;4997161;28;20101;-52
2021/10/24 07:20:20;;;;;;;48.42;22.25;;;;;;;9.79;58.09;102049.00;5004545;28;20098;-52
2021/10/24 07:22:46;;;;;;;61.40;25.15;;;;;;;10.09;56.92;102053.06;4997783;28;20060;-53
2021/10/24 07:25:12;;;;;;;38.08;18.02;;;;;;;10.37;56.36;102057.88;4989961;28;20157;-53
2021/10/24 07:27:38;;;;;;;28.23;14.60;;;;;;;10.66;56.39;102050.97;4995674;28;20460;-53
2021/10/24 07:30:05;;;;;;;30.92;15.43;;;;;;;10.86;55.40;102063.13;4998307;28;20030;-55
2021/10/24 07:32:30;;;;;;;42.53;20.90;;;;;;;10.98;55.20;102065.88;4995647;28;20072;-56
2021/10/24 07:34:56;;;;;;;41.92;20.52;;;;;;;11.13;54.97;102067.81;4995710;28;20105;-56
2021/10/24 07:37:22;;;;;;;28.52;12.80;;;;;;;11.24;54.75;102063.28;4995655;28;20026;-51
2021/10/24 07:39:47;;;;;;;18.15;9.50;;;;;;;11.37;54.61;102067.59;4995635;28;20034;-56
2021/10/24 07:42:13;;;;;;;26.33;7.22;;;;;;;11.46;53.91;102068.19;4996270;28;20022;-57
2021/10/24 07:44:39;;;;;;;12.88;5.88;;;;;;;11.63;53.55;102071.78;4995271;28;20414;-58
2021/10/24 07:47:05;;;;;;;12.18;5.60;;;;;;;11.73;52.67;102074.81;4996230;28;20081;-54
2021/10/24 07:49:30;;;;;;;10.77;5.00;;;;;;;11.75;52.72;102077.25;4995715;28;20050;-55
2021/10/24 07:51:57;;;;;;;16.08;5.90;;;;;;;11.89;52.86;102079.59;4995997;28;20168;-58
2021/10/24 07:54:22;;;;;;;11.52;4.25;;;;;;;12.07;52.95;102087.25;4995234;28;20048;-56
2021/10/24 07:56:48;;;;;;;9.48;3.88;;;;;;;12.26;51.57;102082.75;4994989;28;20117;-59
2021/10/24 07:59:13;;;;;;;8.73;4.07;;;;;;;12.38;50.33;102085.41;4995128;28;20034;-57
2021/10/24 08:01:40;;;;;;;9.38;4.78;;;;;;;12.41;50.30;102081.84;4992994;28;20532;-56
2021/10/24 08:04:07;;;;;;;8.68;3.78;;;;;;;12.50;50.48;102082.41;4993884;28;20030;-50
2021/10/24 08:06:34;;;;;;;8.05;3.47;;;;;;;12.65;49.28;102081.47;4995915;28;20410;-56
2021/10/24 08:09:05;;;;;;;8.68;3.92;;;;;;;12.76;49.06;102075.19;4994784;28;20325;-54
2021/10/24 08:11:31;;;;;;;8.38;3.65;;;;;;;12.88;49.20;102083.47;4994159;28;20034;-53
2021/10/24 08:13:58;;;;;;;13.15;4.78;;;;;;;12.98;49.38;102080.00;4993206;28;20084;-53
2021/10/24 08:16:23;;;;;;;9.18;5.05;;;;;;;13.14;48.41;102083.47;4995416;28;20034;-55
2021/10/24 08:18:49;;;;;;;9.80;3.90;;;;;;;13.21;47.40;102083.66;4992530;28;20027;-60
2021/10/24 08:21:14;;;;;;;10.50;3.75;;;;;;;13.18;45.82;102080.78;4994494;28;20026;-57
2021/10/24 08:23:39;;;;;;;7.22;3.33;;;;;;;13.12;46.20;102071.75;4991797;28;20063;-49
2021/10/24 08:26:05;;;;;;;9.82;4.68;;;;;;;13.16;46.53;102077.47;4998597;28;20018;-60
2021/10/24 08:28:30;;;;;;;6.70;3.40;;;;;;;13.21;46.25;102080.00;4996363;28;20041;-51
2021/10/24 08:30:56;;;;;;;7.22;2.53;;;;;;;13.29;45.99;102076.91;4994696;28;20034;-52
2021/10/24 08:33:21;;;;;;;6.80;2.20;;;;;;;13.37;45.20;102074.16;4991122;28;20318;-57
2021/10/24 08:35:47;;;;;;;6.85;2.50;;;;;;;13.52;45.04;102073.19;5002114;28;20032;-51
2021/10/24 08:38:12;;;;;;;7.03;3.25;;;;;;;13.60;44.88;102072.09;4999429;28;20019;-59
2021/10/24 08:40:43;;;;;;;10.65;2.47;;;;;;;13.68;43.98;102070.16;4997876;28;20117;-55
2021/10/24 08:43:18;;;;;;;11.57;2.83;;;;;;;13.72;43.23;102071.88;4998591;28;20058;-58
2021/10/24 08:45:45;;;;;;;6.30;2.03;;;;;;;13.81;44.16;102075.19;4991558;28;20026;-55
2021/10/24 08:48:10;;;;;;;4.50;2.05;;;;;;;13.92;43.81;102086.63;5002340;28;20022;-49
2021/10/24 08:50:36;;;;;;;8.45;2.30;;;;;;;13.99;43.32;102081.09;5000644;28;20117;-58
2021/10/24 08:53:06;;;;;;;5.30;2.72;;;;;;;14.05;43.88;102090.84;5002179;28;20057;-51
2021/10/24 08:55:31;;;;;;;7.38;2.40;;;;;;;14.04;43.34;102079.94;5006374;28;20313;-57
2021/10/24 08:57:58;;;;;;;9.35;2.83;;;;;;;14.06;42.75;102074.69;5000620;28;20182;-46
2021/10/24 09:00:23;;;;;;;32.97;14.02;;;;;;;14.16;43.66;102082.47;4997004;28;20758;-52
2021/10/24 09:02:56;;;;;;;10.00;3.90;;;;;;;14.28;43.82;102092.72;4994675;28;20019;-55
2021/10/24 09:05:53;;;;;;;64.30;25.58;;;;;;;14.43;42.42;102094.53;5006722;28;20058;-54
2021/10/24 09:08:21;;;;;;;9.73;3.25;;;;;;;14.41;42.22;102100.53;4976021;28;20072;-60
2021/10/24 09:10:52;;;;;;;11.48;2.63;;;;;;;14.24;41.53;102106.81;4998894;28;20022;-51
2021/10/24 09:13:37;;;;;;;8.90;3.38;;;;;;;14.17;42.92;102101.06;4998338;28;20057;-49
2021/10/24 09:16:08;;;;;;;7.50;2.47;;;;;;;14.20;41.92;102097.47;5004406;28;20417;-57
2021/10/24 09:18:38;;;;;;;8.50;3.05;;;;;;;14.18;41.89;102088.56;4999044;28;20034;-55
2021/10/24 09:21:15;;;;;;;17.55;6.55;;;;;;;14.09;43.55;102091.69;5000871;28;20026;-47
2021/10/24 09:24:10;;;;;;;10.93;3.70;;;;;;;14.24;43.20;102103.97;4998418;28;20026;-57
2021/10/24 09:26:37;;;;;;;8.00;2.88;;;;;;;14.35;42.66;102095.63;4992117;28;20455;-53
2021/10/24 09:29:14;;;;;;;9.68;3.10;;;;;;;14.45;42.23;102090.09;4995730;28;20406;-53
2021/10/24 09:31:43;;;;;;;16.77;8.27;;;;;;;14.51;42.13;102099.03;4995291;28;20041;-53
2021/10/24 09:34:12;;;;;;;10.82;3.45;;;;;;;14.53;41.99;102105.16;4998070;28;20046;-53
2021/10/24 09:36:52;;;;;;;6.35;2.47;;;;;;;14.45;42.43;102098.59;4997975;28;20029;-56
2021/10/24 09:39:18;;;;;;;56.05;22.00;;;;;;;14.40;41.50;102101.75;4998181;28;20037;-48
2021/10/24 09:41:44;;;;;;;36.55;14.38;;;;;;;14.42;42.00;102104.19;4998106;28;20042;-49
2021/10/24 09:44:14;;;;;;;8.93;2.97;;;;;;;14.37;41.91;102102.53;4998188;28;20022;-51
2021/10/24 09:46:56;;;;;;;28.33;11.55;;;;;;;14.39;41.62;102094.47;4998167;28;20558;-53
2021/10/24 09:49:23;;;;;;;42.08;16.67;;;;;;;14.39;42.35;102093.66;4990756;28;20058;-58
2021/10/24 09:51:49;;;;;;;8.38;3.50;;;;;;;14.37;40.74;102096.84;4999116;28;20038;-56
2021/10/24 09:54:22;;;;;;;9.15;3.10;;;;;;;14.36;41.16;102094.41;4998755;28;20026;-53
2021/10/24 09:56:48;;;;;;;21.38;8.23;;;;;;;14.37;43.06;102091.19;4997389;28;20029;-55
2021/10/24 09:59:24;;;;;;;19.15;6.90;;;;;;;14.37;43.17;102090.38;4998372;28;20122;-57
2021/10/24 10:01:50;;;;;;;16.10;4.78;;;;;;;14.38;41.96;102081.50;4996064;28;20088;-56
2021/10/24 10:04:16;;;;;;;9.30;3.08;;;;;;;14.36;41.13;102077.44;4996939;28;20014;-51
2021/10/24 10:06:44;;;;;;;7.20;3.05;;;;;;;14.26;41.64;102076.16;4994828;28;20038;-56
2021/10/24 10:09:13;;;;;;;13.02;3.03;;;;;;;14.17;41.66;102081.28;4999004;28;20077;-46
2021/10/24 10:12:11;;;;;;;10.75;3.58;;;;;;;14.10;41.62;102092.50;4995069;28;20042;-48
2021/10/24 10:14:40;;;;;;;19.50;6.97;;;;;;;14.15;43.36;102092.16;4983923;28;20049;-49
2021/10/24 10:17:10;;;;;;;9.77;3.80;;;;;;;14.26;42.86;102078.97;5002293;28;20084;-49
2021/10/24 10:19:38;;;;;;;7.75;3.22;;;;;;;14.30;42.76;102085.47;4990589;28;20326;-53
2021/10/24 10:22:21;;;;;;;11.68;3.95;;;;;;;14.32;42.50;102077.41;4992743;28;20054;-55
2021/10/24 10:25:01;;;;;;;7.10;2.70;;;;;;;14.28;41.71;102073.75;4997452;28;20030;-52
2021/10/24 10:27:34;;;;;;;8.90;3.13;;;;;;;14.24;42.29;102070.03;4997003;28;20073;-54
2021/10/24 10:30:31;;;;;;;5.88;2.22;;;;;;;14.22;41.79;102069.59;4997345;28;20026;-49
2021/10/24 10:32:56;;;;;;;10.20;2.70;;;;;;;14.29;41.55;102054.75;4993577;28;20031;-52
2021/10/24 10:35:24;;;;;;;8.27;2.70;;;;;;;14.24;41.30;102033.25;4993522;28;20436;-49
2021/10/24 10:37:58;;;;;;;7.55;3.20;;;;;;;14.24;41.73;102047.41;4992770;28;20023;-56
2021/10/24 10:40:36;;;;;;;8.75;2.28;;;;;;;14.29;42.75;102044.25;4992175;28;20346;-55
2021/10/24 10:43:11;;;;;;;6.65;2.70;;;;;;;14.39;40.86;102043.53;4988785;28;20026;-56
2021/10/24 10:45:41;;;;;;;7.90;2.08;;;;;;;14.53;40.85;102049.38;4986550;28;20018;-54
2021/10/24 10:48:33;;;;;;;6.60;2.30;;;;;;;14.68;41.14;102041.00;4996897;28;20441;-54
2021/10/24 10:51:03;;;;;;;8.15;2.20;;;;;;;14.74;40.57;102050.75;4999391;28;20030;-52
2021/10/24 10:53:31;;;;;;;4.55;2.03;;;;;;;14.84;40.44;102061.38;4996045;28;20058;-52
2021/10/24 10:56:03;;;;;;;7.32;2.78;;;;;;;14.88;40.42;102050.88;4995148;28;20053;-51
2021/10/24 10:58:34;;;;;;;8.65;2.50;;;;;;;14.88;40.62;102048.06;4998688;28;20026;-51
2021/10/24 11:01:01;;;;;;;5.60;2.17;;;;;;;14.91;40.44;102052.91;4995932;28;20399;-54
2021/10/24 11:03:46;;;;;;;7.38;2.90;;;;;;;15.01;40.75;102046.50;4996159;28;20022;-52
2021/10/24 11:06:34;;;;;;;8.00;2.30;;;;;;;15.05;41.05;102038.84;4998605;28;20045;-56
2021/10/24 11:09:04;;;;;;;7.20;2.28;;;;;;;15.19;39.37;102045.84;4996030;28;20410;-56
2021/10/24 11:11:36;;;;;;;6.50;2.35;;;;;;;15.21;40.11;102044.22;4997405;28;20033;-57
2021/10/24 11:14:22;;;;;;;8.10;2.35;;;;;;;15.33;40.51;102038.22;4995874;28;20329;-54
2021/10/24 11:16:52;;;;;;;8.52;2.13;;;;;;;15.54;39.06;102048.06;4999193;28;20045;-56
2021/10/24 11:19:27;;;;;;;7.25;2.28;;;;;;;15.57;38.87;102042.41;4994315;28;20084;-53
2021/10/24 11:22:03;;;;;;;7.13;2.15;;;;;;;15.59;39.07;102045.69;4995956;28;20022;-53
2021/10/24 11:24:49;;;;;;;10.15;2.63;;;;;;;15.63;38.58;102051.41;4992589;28;20050;-55